Flight Track Log - Related Links

Times and Time Zones

All times are in EDT time to prevent confusion due to time zone crossing. See the N777NC flight status page for this flight to view local times or setup timezone preferences in your user account.

Time Position Orientation Groundspeed Altitude Reporting Facility
EDT Latitude Longitude Course Direction KTS MPH feet Rate Location/Type
Fri 10:51:53 PM 33.6561 -84.3733 349° North 440 506 2,600  Level Atlanta Center
Fri 10:52:56 PM 33.7167 -84.3000 45° Northeast 314 361 4,500 2,462 Climbing Atlanta TRACON
Fri 10:53:50 PM 33.7833 -84.3167 348° North 311 358 7,400 2,950 Climbing Atlanta TRACON
Fri 10:54:00 PM 34.1134 -84.5419 347° North  Level FlightAware Approximate
Fri 10:54:56 PM 33.8667 -84.3833 326° Northwest 312 359 10,400  Level Atlanta TRACON
Fri 10:55:00 PM 34.2332 -84.5742 349° North  Level FlightAware Approximate
Fri 10:55:54 PM 33.9272 -84.4469 319° Northwest 325 374 11,700  Level Atlanta Center
Fri 10:56:00 PM 34.3539 -84.6015 349° North  Level FlightAware Approximate
Fri 10:56:53 PM 34.0103 -84.5225 323° Northwest 360 414 13,100  Level Atlanta Center
Fri 10:57:00 PM 34.4746 -84.6290 349° North  Level FlightAware Approximate
Fri 10:57:53 PM 34.1042 -84.5531 345° North 366 421 15,000  Level Atlanta Center
Fri 10:58:53 PM 34.2272 -84.5839 348° North 384 442 17,400 1,950 Climbing Atlanta Center
Fri 10:59:53 PM 34.3397 -84.6072 350° North 411 473 18,900 1,400 Climbing Atlanta Center
Fri 11:00:53 PM 34.4567 -84.6308 351° North 421 484 20,200 1,350 Climbing Atlanta Center
Fri 11:01:53 PM 34.5628 -84.6542 350° North 426 490 21,600 1,450 Climbing Atlanta Center
Fri 11:02:53 PM 34.6858 -84.6753 352° North 432 497 23,100 1,400 Climbing Atlanta Center
Fri 11:03:53 PM 34.8108 -84.6992 351° North 448 516 24,400 1,200 Climbing Atlanta Center
Fri 11:04:53 PM 34.9506 -84.7281 350° North 448 516 25,500 1,100 Climbing Atlanta Center
Fri 11:05:53 PM 35.0819 -84.7519 352° North 460 529 26,600 1,200 Climbing Atlanta Center
Fri 11:06:53 PM 35.2153 -84.7811 350° North 472 543 27,900 700 Climbing Atlanta Center
Fri 11:07:53 PM 35.3528 -84.8053 352° North 482 555 28,000 50 Climbing Atlanta Center
Fri 11:08:53 PM 35.4944 -84.8372 350° North 499 574 28,000  Level Atlanta Center
Fri 11:09:53 PM 35.6361 -84.8794 346° North 512 589 28,000  Level Atlanta Center
Fri 11:11:41 PM 35.8886 -84.9406 349° North 534 615 28,000  Level Indianapolis Center
Fri 11:12:42 PM 36.0150 -84.9886 343° North 524 603 28,000  Level Indianapolis Center
Fri 11:13:42 PM 36.1519 -85.0458 341° North 518 596 28,000  Level Indianapolis Center
Fri 11:14:43 PM 36.3222 -85.0931 347° North 520 598 28,000 393 Level Indianapolis Center
Fri 11:15:44 PM 36.4633 -85.1381 346° North 522 601 28,800 893 Climbing Indianapolis Center
Fri 11:16:44 PM 36.6006 -85.1925 342° North 517 595 29,800 992 Climbing Indianapolis Center
Fri 11:17:45 PM 36.7394 -85.2361 346° North 516 594 30,800 984 Climbing Indianapolis Center
Fri 11:18:46 PM 36.8775 -85.2792 346° North 512 589 31,800 942 Climbing Indianapolis Center
Fri 11:19:46 PM 37.0136 -85.3294 344° North 510 587 32,700 942 Climbing Indianapolis Center
Fri 11:20:47 PM 37.1464 -85.3778 344° North 505 581 33,700 689 Climbing Indianapolis Center
Fri 11:21:48 PM 37.2836 -85.4208 346° North 505 581 34,100 149 Climbing Indianapolis Center
Fri 11:22:48 PM 37.4267 -85.4381 355° North 511 588 34,000 -50 Descending Indianapolis Center
Fri 11:23:49 PM 37.5689 -85.4617 353° North 514 592 34,000  Level Indianapolis Center
Fri 11:24:50 PM 37.7089 -85.4869 352° North 507 583 34,000  Level Indianapolis Center
Fri 11:25:50 PM 37.8528 -85.5189 350° North 511 588 34,000  Level Indianapolis Center
Fri 11:26:51 PM 37.9919 -85.5514 350° North 510 587 34,000  Level Indianapolis Center
Fri 11:27:52 PM 38.1311 -85.5761 352° North 506 582 34,000  Level Indianapolis Center
Fri 11:28:52 PM 38.2744 -85.5861 357° North 513 590 34,000  Level Indianapolis Center
Fri 11:29:53 PM 38.4175 -85.6053 354° North 515 593 34,000  Level Indianapolis Center
Fri 11:30:54 PM 38.5614 -85.6153 357° North 518 596 34,000  Level Indianapolis Center
Fri 11:31:54 PM 38.7206 -85.6233 358° North 518 596 34,000  Level Indianapolis Center
Fri 11:32:55 PM 38.8658 -85.6217 North 522 601 34,000  Level Indianapolis Center
Fri 11:33:56 PM 39.0103 -85.6236 359° North 522 601 34,000  Level Indianapolis Center
Fri 11:34:56 PM 39.1561 -85.6158 North 526 605 34,000  Level Indianapolis Center
Fri 11:35:57 PM 39.3011 -85.6131 North 523 602 34,000  Level Indianapolis Center
Fri 11:36:57 PM 39.4447 -85.6150 359° North 523 602 34,000  Level Indianapolis Center
Fri 11:37:58 PM 39.5906 -85.6058 North 528 608 34,000  Level Indianapolis Center
Fri 11:38:59 PM 39.7353 -85.6053 360° North 527 606 34,000  Level Indianapolis Center
Fri 11:39:59 PM 39.8786 -85.6186 356° North 523 602 34,000  Level Indianapolis Center
Fri 11:41:00 PM 40.0081 -85.6822 339° North 503 579 34,000  Level Indianapolis Center
Fri 11:42:00 PM 40.1261 -85.7697 330° Northwest 494 568 34,000  Level Indianapolis Center
Fri 11:43:01 PM 40.2739 -85.8672 333° Northwest 499 574 34,000  Level Indianapolis Center
Fri 11:44:02 PM 40.3836 -85.9683 325° Northwest 490 564 34,000  Level Indianapolis Center
Fri 11:45:02 PM 40.4889 -86.0758 322° Northwest 485 558 34,000 -149 Level Indianapolis Center
Fri 11:46:03 PM 40.6014 -86.1767 326° Northwest 493 567 33,700 -472 Descending Indianapolis Center
Fri 11:47:09 PM 40.6981 -86.2897 318° Northwest 491 565 33,000 -714 Descending Chicago Center
Fri 11:48:09 PM 40.7994 -86.4072 319° Northwest 485 558 32,200 -1,350 Descending Chicago Center
Fri 11:49:09 PM 40.9208 -86.5475 319° Northwest 483 556 30,300 -1,983 Descending Chicago Center
Fri 11:50:10 PM 41.0183 -86.6689 317° Northwest 481 554 28,200 -2,777 Descending Chicago Center
Fri 11:51:10 PM 41.1156 -86.7811 319° Northwest 471 542 24,700 -3,620 Descending Chicago Center
Fri 11:52:11 PM 41.2044 -86.8997 315° West 461 531 20,900 -3,769 Descending Chicago Center
Fri 11:53:11 PM 41.2872 -87.0144 314° West 445 512 17,100 -3,669 Descending Chicago Center
Fri 11:54:12 PM 41.3644 -87.1267 313° West 421 484 13,500 -2,727 Descending Chicago Center
Fri 11:55:12 PM 41.4406 -87.2242 316° Northwest 390 449 11,600 -1,240 Descending Chicago Center
Fri 11:56:13 PM 41.5156 -87.3253 315° West 387 445 11,000 -298 Descending Chicago Center
Fri 11:57:13 PM 41.5878 -87.4292 313° West 387 445 11,000 -300 Level Chicago Center
Fri 11:58:13 PM 41.6564 -87.5222 315° West 359 413 10,400 -496 Descending Chicago Center
Fri 11:59:14 PM 41.7211 -87.6092 315° West 338 389 10,000 -347 Descending Chicago Center
Sat 12:00:14 AM 41.7850 -87.6772 322° Northwest 304 350 9,700 -1,300 Descending Chicago Center
Sat 12:01:14 AM 41.8617 -87.7539 323° Northwest 293 337 7,400 -1,339 Descending Chicago Center
Sat 12:02:15 AM 41.9311 -87.8075 330° Northwest 292 336 7,000 -248 Descending Chicago Center
Sat 12:03:15 AM 41.9981 -87.8642 328° Northwest 289 333 6,900 -645 Descending Chicago Center
Sat 12:04:16 AM 42.0694 -87.9103 334° Northwest 288 331 5,700 -942 Descending Chicago Center
Sat 12:05:16 AM 42.1369 -87.9478 338° Northwest 272 313 5,000 -650 Descending Chicago Center
Sat 12:06:16 AM 42.1694 -88.0142 303° West 233 268 4,400 -843 Descending Chicago Center
Sat 12:07:17 AM 42.1269 -88.0644 221° Southwest 208 239 3,300 -793 Descending Chicago Center
Sat 12:08:17 AM 42.0783 -88.0347 156° South 199 229 2,800 -500 Descending Chicago Center

Login

Don't have an account? Register now (free) for customized features, flight alerts, and more!